createdAt,value
2018-09-05T00:01:28.744Z,57.60
2018-09-05T00:03:55.793Z,57.60
2018-09-05T00:06:23.200Z,57.70
2018-09-05T00:08:50.241Z,57.80
2018-09-05T00:11:17.280Z,57.70
2018-09-05T00:13:44.604Z,57.70
2018-09-05T00:16:11.647Z,57.70
2018-09-05T00:18:38.697Z,57.70
2018-09-05T00:21:06.065Z,57.70
2018-09-05T00:23:33.162Z,57.80
2018-09-05T00:26:00.192Z,57.70
2018-09-05T00:28:27.612Z,57.80
2018-09-05T00:30:54.666Z,57.80
2018-09-05T00:33:21.900Z,57.90
2018-09-05T00:35:49.152Z,57.90
2018-09-05T00:38:16.203Z,57.90
2018-09-05T00:40:43.351Z,58.00
2018-09-05T00:43:11.052Z,58.00
2018-09-05T00:45:38.100Z,58.00
2018-09-05T00:48:05.140Z,58.30
2018-09-05T00:50:32.183Z,58.00
2018-09-05T00:52:59.229Z,58.10
2018-09-05T00:55:26.299Z,58.10
2018-09-05T00:57:53.338Z,58.10
2018-09-05T01:00:20.698Z,58.10
2018-09-05T01:02:47.743Z,58.10
2018-09-05T01:05:14.792Z,58.20
2018-09-05T01:07:42.174Z,58.10
2018-09-05T01:10:09.274Z,58.20
2018-09-05T01:12:36.396Z,58.20
2018-09-05T01:15:03.464Z,58.10
2018-09-05T01:17:30.511Z,58.10
2018-09-05T01:19:57.556Z,58.20
2018-09-05T01:22:24.620Z,58.10
2018-09-05T01:24:51.749Z,58.10
2018-09-05T01:27:20.837Z,58.20
2018-09-05T01:29:47.892Z,58.10
2018-09-05T01:32:14.932Z,58.10
2018-09-05T01:34:42.195Z,58.10
2018-09-05T01:37:09.754Z,58.10
2018-09-05T01:39:36.807Z,58.10
2018-09-05T01:42:04.057Z,58.10
2018-09-05T01:44:31.110Z,58.10
2018-09-05T01:46:58.159Z,58.10
2018-09-05T01:49:25.480Z,58.10
2018-09-05T01:51:55.569Z,58.10
2018-09-05T01:54:22.627Z,58.10
2018-09-05T01:56:49.872Z,58.10
2018-09-05T01:59:16.931Z,58.10
2018-09-05T02:01:44.024Z,58.10
2018-09-05T02:04:11.093Z,58.10
2018-09-05T02:06:38.145Z,58.00
2018-09-05T02:09:07.824Z,58.50
2018-09-05T02:11:34.887Z,58.20
2018-09-05T02:14:01.953Z,58.30
2018-09-05T02:16:29.025Z,58.30
2018-09-05T02:18:56.092Z,58.30
2018-09-05T02:21:23.408Z,58.30
2018-09-05T02:23:50.467Z,58.20
2018-09-05T02:26:17.525Z,58.20
2018-09-05T02:28:44.580Z,58.20
2018-09-05T02:31:11.657Z,58.20
2018-09-05T02:33:38.721Z,58.20
2018-09-05T02:36:05.774Z,58.10
2018-09-05T02:38:33.196Z,58.20
2018-09-05T02:41:00.265Z,58.10
2018-09-05T02:43:33.111Z,57.70
2018-09-05T02:46:00.152Z,58.00
2018-09-05T02:48:27.229Z,57.90
2018-09-05T02:50:54.604Z,57.80
2018-09-05T02:53:21.660Z,57.80
2018-09-05T02:55:54.961Z,58.20
2018-09-05T02:58:22.005Z,58.10
2018-09-05T03:00:49.048Z,57.80
2018-09-05T03:03:16.416Z,57.70
2018-09-05T03:05:43.481Z,57.80
2018-09-05T03:08:10.528Z,57.90
2018-09-05T03:10:37.884Z,57.90
2018-09-05T03:13:04.945Z,58.00
2018-09-05T03:15:32.026Z,58.00
2018-09-05T03:17:59.457Z,58.00
2018-09-05T03:20:26.545Z,57.90
2018-09-05T03:22:53.634Z,58.30
2018-09-05T03:25:20.741Z,58.00
2018-09-05T03:27:47.816Z,58.10
2018-09-05T03:30:14.901Z,58.10
2018-09-05T03:32:42.415Z,58.00
2018-09-05T03:35:09.388Z,58.00
2018-09-05T03:37:36.478Z,57.90
2018-09-05T03:40:03.881Z,57.80
2018-09-05T03:42:30.974Z,57.80
2018-09-05T03:44:58.069Z,57.80
2018-09-05T03:47:25.153Z,57.70
2018-09-05T03:49:52.290Z,57.90
2018-09-05T03:52:19.333Z,57.70
2018-09-05T03:54:46.790Z,57.70
2018-09-05T03:57:13.863Z,57.70
2018-09-05T03:59:40.942Z,57.70
2018-09-05T04:02:10.042Z,57.70
2018-09-05T04:04:37.117Z,57.70
2018-09-05T04:07:04.195Z,57.70
2018-09-05T04:09:31.282Z,57.70
2018-09-05T04:11:58.389Z,57.70
2018-09-05T04:14:25.882Z,57.90
2018-09-05T04:16:52.954Z,58.00
2018-09-05T04:19:20.034Z,58.00
2018-09-05T04:21:47.450Z,58.00
2018-09-05T04:24:14.525Z,57.90
2018-09-05T04:26:41.601Z,57.90
2018-09-05T04:29:08.685Z,57.90
2018-09-05T04:31:35.767Z,57.80
2018-09-05T04:34:03.022Z,57.80
2018-09-05T04:36:30.091Z,57.80
2018-09-05T04:38:57.177Z,57.90
2018-09-05T04:41:24.549Z,57.80
2018-09-05T04:43:51.628Z,57.80
2018-09-05T04:46:18.799Z,57.80
2018-09-05T04:48:46.270Z,57.80
2018-09-05T04:51:13.353Z,57.80
2018-09-05T04:53:40.436Z,57.80
2018-09-05T04:56:07.630Z,57.70
2018-09-05T04:58:34.726Z,57.70
2018-09-05T05:01:01.812Z,57.80
2018-09-05T05:03:29.197Z,57.80
2018-09-05T05:05:56.275Z,57.90
2018-09-05T05:08:23.357Z,57.90
2018-09-05T05:10:50.469Z,57.90
2018-09-05T05:13:17.561Z,57.80
2018-09-05T05:15:44.641Z,57.90
2018-09-05T05:18:11.742Z,57.80
2018-09-05T05:20:38.827Z,57.80
2018-09-05T05:23:05.905Z,57.70
2018-09-05T05:25:33.007Z,57.70
2018-09-05T05:28:00.086Z,57.60
2018-09-05T05:30:27.165Z,57.60
2018-09-05T05:32:54.713Z,57.50
2018-09-05T05:35:21.805Z,57.50
2018-09-05T05:37:48.929Z,57.40
2018-09-05T05:40:16.096Z,57.30
2018-09-05T05:42:43.148Z,58.00
2018-09-05T05:45:10.227Z,58.00
2018-09-05T05:47:37.309Z,58.00
2018-09-05T05:50:04.405Z,58.20
2018-09-05T05:52:31.965Z,57.80
2018-09-05T05:54:59.447Z,57.80
2018-09-05T05:57:28.783Z,57.90
2018-09-05T05:59:56.025Z,57.80
2018-09-05T06:02:23.150Z,57.80
2018-09-05T06:04:50.399Z,57.80
2018-09-05T06:07:17.671Z,57.70
2018-09-05T06:09:44.750Z,57.70
2018-09-05T06:12:11.945Z,57.70
2018-09-05T06:14:38.978Z,57.70
2018-09-05T06:17:06.064Z,57.50
2018-09-05T06:19:33.168Z,57.50
2018-09-05T06:22:00.322Z,57.50
2018-09-05T06:24:27.391Z,57.50
2018-09-05T06:26:54.478Z,57.40
2018-09-05T06:29:21.697Z,57.40
2018-09-05T06:31:48.917Z,57.40
2018-09-05T06:34:16.166Z,57.30
2018-09-05T06:36:43.220Z,57.30
2018-09-05T06:39:10.670Z,57.20
2018-09-05T06:41:37.945Z,57.20
2018-09-05T06:44:05.641Z,57.20
2018-09-05T06:46:32.921Z,57.30
2018-09-05T06:48:59.993Z,57.30
2018-09-05T06:51:27.175Z,57.40
2018-09-05T06:53:54.220Z,57.50
2018-09-05T06:56:21.309Z,57.50
2018-09-05T06:58:48.457Z,57.50
2018-09-05T07:01:15.940Z,57.50
2018-09-05T07:03:43.149Z,57.50
2018-09-05T07:06:10.142Z,57.60
2018-09-05T07:08:37.237Z,57.90
2018-09-05T07:11:04.313Z,57.90
2018-09-05T07:13:31.395Z,57.70
2018-09-05T07:15:58.518Z,57.70
2018-09-05T07:18:26.025Z,57.60
2018-09-05T07:21:05.679Z,57.60
2018-09-05T07:23:20.216Z,57.60
2018-09-05T07:25:47.477Z,57.50
2018-09-05T07:28:14.709Z,57.60
2018-09-05T07:30:41.829Z,57.60
2018-09-05T07:33:08.917Z,58.10
2018-09-05T07:35:36.111Z,57.90
2018-09-05T07:38:03.137Z,57.90
2018-09-05T07:40:30.244Z,57.90
2018-09-05T07:42:57.314Z,57.80
2018-09-05T07:45:24.470Z,58.00
2018-09-05T07:47:51.542Z,58.00
2018-09-05T07:50:18.630Z,57.90
2018-09-05T07:52:45.748Z,57.80
2018-09-05T07:55:12.922Z,58.10
2018-09-05T07:57:40.014Z,57.70
2018-09-05T08:00:07.105Z,57.60
2018-09-05T08:02:34.181Z,57.60
2018-09-05T08:05:01.273Z,57.50
2018-09-05T08:07:28.373Z,57.40
2018-09-05T08:09:55.486Z,57.20
2018-09-05T08:12:22.567Z,57.20
2018-09-05T08:14:49.660Z,57.00
2018-09-05T08:17:16.735Z,56.90
2018-09-05T08:19:43.881Z,56.90
2018-09-05T08:22:10.964Z,56.80
2018-09-05T08:24:44.143Z,56.90
2018-09-05T08:27:11.214Z,57.00
2018-09-05T08:29:38.281Z,56.90
2018-09-05T08:32:05.550Z,57.00
2018-09-05T08:34:32.625Z,56.90
2018-09-05T08:37:03.901Z,56.80
2018-09-05T08:39:30.928Z,56.80
2018-09-05T08:41:58.126Z,56.80
2018-09-05T08:44:25.274Z,56.80
2018-09-05T08:46:52.531Z,56.90
2018-09-05T08:49:19.525Z,57.00
2018-09-05T08:51:46.614Z,57.10
2018-09-05T08:54:13.700Z,57.00
2018-09-05T08:56:40.827Z,56.80
2018-09-05T08:59:08.006Z,56.80
2018-09-05T09:01:35.746Z,56.60
2018-09-05T09:04:02.825Z,56.30
2018-09-05T09:06:29.917Z,56.30
2018-09-05T09:08:57.017Z,56.40
2018-09-05T09:11:24.098Z,56.60
2018-09-05T09:13:51.173Z,56.80
2018-09-05T09:16:18.271Z,56.80
2018-09-05T09:18:45.391Z,56.80
2018-09-05T09:21:12.606Z,56.70
2018-09-05T09:23:39.687Z,56.60
2018-09-05T09:26:07.285Z,56.70
2018-09-05T09:28:34.398Z,56.50
2018-09-05T09:31:01.495Z,56.50
2018-09-05T09:33:28.576Z,56.40
2018-09-05T09:35:56.229Z,56.30
2018-09-05T09:38:23.318Z,56.30
2018-09-05T09:40:50.421Z,56.30
2018-09-05T09:43:17.490Z,56.30
2018-09-05T09:45:44.565Z,56.40
2018-09-05T09:48:11.657Z,56.30
2018-09-05T09:50:38.737Z,56.40
2018-09-05T09:53:05.834Z,56.20
2018-09-05T09:56:06.449Z,56.30
2018-09-05T09:58:33.549Z,56.40
2018-09-05T10:01:06.546Z,56.50
2018-09-05T10:03:39.402Z,56.40
2018-09-05T10:06:12.289Z,56.50
2018-09-05T10:08:45.217Z,56.70
2018-09-05T10:11:15.450Z,56.70
2018-09-05T10:13:48.156Z,56.60
2018-09-05T10:17:20.301Z,56.70
2018-09-05T10:19:53.206Z,56.70
2018-09-05T10:22:20.289Z,56.20
2018-09-05T10:24:47.390Z,56.20
2018-09-05T10:27:14.481Z,56.20
2018-09-05T10:29:41.558Z,56.20
2018-09-05T10:32:08.658Z,56.20
2018-09-05T10:34:36.427Z,56.10
2018-09-05T10:37:03.539Z,56.10
2018-09-05T10:39:30.615Z,56.10
2018-09-05T10:41:57.698Z,56.10
2018-09-05T10:44:24.918Z,56.10
2018-09-05T10:46:51.917Z,56.20
2018-09-05T10:49:18.997Z,56.10
2018-09-05T10:51:52.005Z,56.20
2018-09-05T10:54:19.045Z,56.20
2018-09-05T10:56:46.141Z,56.30
2018-09-05T10:59:13.285Z,56.30
2018-09-05T11:01:40.401Z,56.40
2018-09-05T11:04:07.541Z,56.30
2018-09-05T11:06:36.614Z,56.40
2018-09-05T11:09:06.833Z,56.40
2018-09-05T11:11:33.919Z,56.40
2018-09-05T11:14:01.749Z,56.30
2018-09-05T11:16:28.818Z,56.30
2018-09-05T11:18:55.903Z,56.30
2018-09-05T11:21:23.080Z,56.40
2018-09-05T11:23:50.190Z,56.40
2018-09-05T11:26:17.276Z,56.50
2018-09-05T11:28:44.437Z,56.60
2018-09-05T11:31:11.553Z,56.60
2018-09-05T11:33:38.649Z,56.80
2018-09-05T11:36:05.801Z,56.80
2018-09-05T11:38:32.954Z,56.80
2018-09-05T11:41:00.073Z,56.80
2018-09-05T11:43:27.197Z,56.80
2018-09-05T11:45:54.294Z,56.70
2018-09-05T11:48:21.462Z,56.80
2018-09-05T11:50:48.565Z,56.60
2018-09-05T11:53:15.670Z,56.40
2018-09-05T11:55:42.761Z,56.40
2018-09-05T11:58:09.874Z,56.30
2018-09-05T12:00:37.023Z,56.00
2018-09-05T12:03:04.087Z,55.70
2018-09-05T12:05:31.175Z,55.00
2018-09-05T12:07:58.269Z,54.60
2018-09-05T12:10:25.417Z,54.10
2018-09-05T12:12:52.493Z,54.10
2018-09-05T12:15:19.582Z,54.10
2018-09-05T12:17:46.698Z,54.20
2018-09-05T12:20:13.793Z,54.10
2018-09-05T12:22:40.886Z,53.90
2018-09-05T12:25:08.141Z,53.90
2018-09-05T12:27:35.224Z,54.30
2018-09-05T12:30:02.307Z,54.00
2018-09-05T12:32:29.395Z,54.10
2018-09-05T12:34:56.505Z,54.10
2018-09-05T12:37:23.583Z,54.30
2018-09-05T12:39:50.678Z,54.10
2018-09-05T12:42:17.769Z,54.10
2018-09-05T12:44:44.916Z,53.80
2018-09-05T12:47:11.979Z,53.50
2018-09-05T12:49:39.054Z,53.80
2018-09-05T12:52:06.153Z,53.80
2018-09-05T12:54:33.281Z,53.80
2018-09-05T12:57:00.422Z,53.70
2018-09-05T12:59:27.812Z,53.60
2018-09-05T13:01:54.885Z,53.60
2018-09-05T13:04:21.965Z,53.80
2018-09-05T13:06:49.088Z,53.80
2018-09-05T13:09:16.256Z,53.70
2018-09-05T13:11:43.550Z,53.60
2018-09-05T13:14:10.647Z,53.60
2018-09-05T13:16:37.962Z,53.60
2018-09-05T13:19:05.065Z,53.60
2018-09-05T13:21:36.203Z,53.60
2018-09-05T13:24:03.322Z,53.80
2018-09-05T13:26:30.446Z,53.60
2018-09-05T13:28:57.738Z,53.20
2018-09-05T13:31:24.821Z,53.50
2018-09-05T13:33:52.885Z,53.00
2018-09-05T13:36:20.163Z,53.10
2018-09-05T13:38:47.255Z,53.10
2018-09-05T13:41:14.340Z,53.10
2018-09-05T13:43:41.424Z,53.10
2018-09-05T13:46:08.834Z,53.40
2018-09-05T13:48:35.933Z,53.40
2018-09-05T13:51:03.187Z,53.40
2018-09-05T13:53:30.449Z,53.40
2018-09-05T13:55:57.913Z,53.50
2018-09-05T13:58:25.022Z,53.50
2018-09-05T14:00:52.134Z,53.60
2018-09-05T14:03:19.225Z,53.50
2018-09-05T14:05:46.305Z,53.50
2018-09-05T14:08:13.372Z,53.60
2018-09-05T14:10:40.483Z,53.80
2018-09-05T14:13:07.565Z,53.80
2018-09-05T14:15:34.657Z,53.60
2018-09-05T14:18:01.746Z,53.50
2018-09-05T14:20:28.900Z,53.70
2018-09-05T14:22:55.986Z,53.60
2018-09-05T14:25:23.065Z,53.50
2018-09-05T14:27:50.168Z,53.50
2018-09-05T14:30:17.274Z,53.30
2018-09-05T14:32:44.390Z,53.40
2018-09-05T14:35:11.473Z,53.40
2018-09-05T14:37:38.559Z,53.40
2018-09-05T14:40:05.667Z,53.00
2018-09-05T14:42:32.733Z,53.20
2018-09-05T14:44:59.811Z,53.20
2018-09-05T14:47:27.286Z,53.30
2018-09-05T14:49:54.361Z,53.30
2018-09-05T14:52:21.442Z,53.30
2018-09-05T14:54:48.807Z,53.40
2018-09-05T14:57:15.917Z,53.40
2018-09-05T14:59:43.031Z,53.40
2018-09-05T15:02:14.187Z,53.40
2018-09-05T15:04:41.280Z,53.40
2018-09-05T15:07:08.389Z,53.50
2018-09-05T15:09:35.486Z,53.40
2018-09-05T15:12:02.564Z,53.40
2018-09-05T15:14:29.669Z,53.50
2018-09-05T15:16:56.765Z,53.30
2018-09-05T15:19:23.837Z,53.30
2018-09-05T15:21:50.913Z,53.50
2018-09-05T15:24:18.006Z,53.50
2018-09-05T15:26:45.093Z,53.30
2018-09-05T15:29:12.201Z,53.30
2018-09-05T15:31:39.285Z,53.40
2018-09-05T15:34:06.373Z,53.40
2018-09-05T15:36:33.465Z,53.40
2018-09-05T15:39:00.550Z,53.20
2018-09-05T15:41:27.634Z,53.20
2018-09-05T15:43:55.482Z,53.20
2018-09-05T15:46:22.553Z,53.20
2018-09-05T15:48:49.677Z,53.30
2018-09-05T15:51:16.758Z,53.30
2018-09-05T15:53:44.007Z,53.40
2018-09-05T15:56:11.095Z,53.20
2018-09-05T15:58:38.193Z,53.00
2018-09-05T16:01:05.342Z,52.90
2018-09-05T16:03:32.463Z,53.00
2018-09-05T16:05:59.782Z,53.10
2018-09-05T16:08:26.865Z,53.30
2018-09-05T16:10:53.953Z,53.40
2018-09-05T16:13:21.020Z,53.30
2018-09-05T16:15:48.121Z,53.30
2018-09-05T16:18:15.209Z,53.20
2018-09-05T16:20:42.286Z,53.20
2018-09-05T16:23:09.371Z,53.20
2018-09-05T16:25:36.449Z,53.40
2018-09-05T16:28:03.522Z,53.60
2018-09-05T16:30:30.606Z,53.70
2018-09-05T16:32:57.733Z,53.70
2018-09-05T16:35:24.831Z,53.80
2018-09-05T16:37:51.905Z,53.80
2018-09-05T16:40:18.986Z,53.90
2018-09-05T16:42:46.083Z,53.90
2018-09-05T16:45:13.209Z,53.90
2018-09-05T16:47:40.281Z,53.90
2018-09-05T16:50:07.364Z,53.90
2018-09-05T16:52:34.444Z,53.90
2018-09-05T16:55:01.535Z,53.90
2018-09-05T16:57:28.625Z,53.80
2018-09-05T16:59:55.716Z,53.90
2018-09-05T17:02:23.341Z,53.90
2018-09-05T17:04:50.453Z,53.90
2018-09-05T17:07:17.533Z,53.80
2018-09-05T17:09:44.618Z,53.80
2018-09-05T17:12:11.685Z,53.80
2018-09-05T17:14:38.777Z,53.80
2018-09-05T17:17:05.973Z,53.80
2018-09-05T17:19:33.073Z,53.80
2018-09-05T17:22:00.181Z,53.80
2018-09-05T17:24:27.285Z,53.70
2018-09-05T17:26:54.366Z,53.70
2018-09-05T17:29:21.518Z,53.80
2018-09-05T17:31:48.621Z,54.00
2018-09-05T17:34:15.733Z,53.80
2018-09-05T17:36:42.812Z,53.90
2018-09-05T17:39:11.069Z,53.70
2018-09-05T17:41:38.438Z,53.50
2018-09-05T17:44:06.246Z,53.50
2018-09-05T17:46:33.465Z,53.40
2018-09-05T17:49:00.565Z,53.40
2018-09-05T17:51:27.633Z,53.50
2018-09-05T17:53:54.745Z,53.70
2018-09-05T17:56:26.024Z,53.40
2018-09-05T17:58:53.125Z,53.30
2018-09-05T18:01:22.200Z,53.30
2018-09-05T18:03:52.086Z,53.40
2018-09-05T18:06:19.825Z,53.50
2018-09-05T18:08:47.097Z,53.60
2018-09-05T18:11:14.607Z,53.70
2018-09-05T18:13:43.293Z,53.80
2018-09-05T18:16:10.449Z,54.10
2018-09-05T18:18:37.577Z,54.20
2018-09-05T18:21:05.754Z,54.10
2018-09-05T18:23:32.834Z,54.10
2018-09-05T18:25:59.957Z,54.30
2018-09-05T18:28:29.184Z,54.10
2018-09-05T18:30:56.265Z,54.20
2018-09-05T18:33:23.490Z,53.80
2018-09-05T18:35:50.575Z,53.70
2018-09-05T18:38:18.026Z,53.70
2018-09-05T18:40:45.094Z,53.80
2018-09-05T18:43:12.370Z,53.70
2018-09-05T18:45:39.457Z,53.90
2018-09-05T18:48:10.634Z,53.80
2018-09-05T18:50:37.760Z,53.90
2018-09-05T18:53:11.210Z,53.50
2018-09-05T18:55:39.321Z,53.70
2018-09-05T18:58:06.412Z,53.40
2018-09-05T19:00:33.871Z,53.40
2018-09-05T19:03:00.906Z,53.40
2018-09-05T19:05:28.132Z,53.30
2018-09-05T19:07:55.235Z,53.50
2018-09-05T19:10:22.321Z,53.40
2018-09-05T19:12:49.413Z,53.50
2018-09-05T19:15:16.505Z,53.50
2018-09-05T19:17:43.581Z,53.50
2018-09-05T19:20:10.671Z,53.50
2018-09-05T19:22:38.426Z,53.40
2018-09-05T19:25:05.786Z,53.40
2018-09-05T19:27:32.891Z,53.40
2018-09-05T19:30:01.967Z,53.40
2018-09-05T19:32:29.053Z,53.50
2018-09-05T19:34:58.225Z,53.70
2018-09-05T19:37:25.323Z,53.70
2018-09-05T19:39:52.607Z,53.80
2018-09-05T19:42:19.734Z,53.90
2018-09-05T19:44:46.860Z,53.90
2018-09-05T19:47:14.103Z,53.80
2018-09-05T19:49:41.567Z,53.90
2018-09-05T19:52:08.687Z,54.00
2018-09-05T19:54:35.797Z,53.90
2018-09-05T19:57:02.865Z,54.00
2018-09-05T19:59:29.945Z,54.00
2018-09-05T20:01:57.055Z,54.00
2018-09-05T20:04:24.470Z,54.00
2018-09-05T20:06:51.574Z,54.00
2018-09-05T20:09:18.676Z,54.00
2018-09-05T20:11:45.804Z,54.10
2018-09-05T20:14:13.124Z,54.20
2018-09-05T20:16:40.205Z,54.30
2018-09-05T20:19:07.286Z,54.60
2018-09-05T20:21:34.408Z,54.30
2018-09-05T20:24:01.697Z,54.40
2018-09-05T20:26:29.067Z,54.40
2018-09-05T20:29:00.272Z,54.50
2018-09-05T20:31:27.351Z,54.50
2018-09-05T20:33:55.110Z,54.60
2018-09-05T20:36:22.209Z,54.60
2018-09-05T20:38:49.555Z,54.70
2018-09-05T20:41:16.649Z,54.70
2018-09-05T20:43:43.792Z,54.80
2018-09-05T20:46:10.822Z,54.90
2018-09-05T20:48:38.049Z,54.90
2018-09-05T20:51:05.154Z,55.00
2018-09-05T20:53:32.297Z,55.00
2018-09-05T20:55:59.373Z,55.00
2018-09-05T20:58:26.509Z,55.00
2018-09-05T21:00:53.605Z,55.00
2018-09-05T21:03:20.731Z,55.00
2018-09-05T21:05:47.841Z,55.10
2018-09-05T21:08:14.921Z,55.10
2018-09-05T21:10:42.432Z,55.10
2018-09-05T21:13:09.518Z,55.10
2018-09-05T21:15:36.609Z,55.10
2018-09-05T21:18:03.766Z,55.10
2018-09-05T21:20:30.790Z,54.90
2018-09-05T21:22:57.885Z,55.30
2018-09-05T21:25:24.961Z,55.30
2018-09-05T21:27:52.034Z,55.30
2018-09-05T21:30:19.201Z,55.30
2018-09-05T21:32:46.277Z,55.20
2018-09-05T21:35:13.380Z,55.20
2018-09-05T21:37:40.449Z,55.20
2018-09-05T21:40:07.569Z,55.40
2018-09-05T21:42:34.631Z,55.60
2018-09-05T21:45:01.731Z,55.80
2018-09-05T21:47:28.819Z,55.90
2018-09-05T21:49:55.930Z,56.10
2018-09-05T21:52:23.005Z,56.60
2018-09-05T21:54:50.102Z,56.40
2018-09-05T21:57:17.191Z,56.50
2018-09-05T21:59:44.265Z,56.60
2018-09-05T22:02:12.963Z,56.60
2018-09-05T22:04:40.081Z,56.70
2018-09-05T22:07:07.159Z,56.60
2018-09-05T22:09:34.549Z,56.60
2018-09-05T22:12:01.631Z,56.60
2018-09-05T22:14:28.711Z,56.70
2018-09-05T22:16:55.811Z,56.70
2018-09-05T22:19:22.889Z,56.70
2018-09-05T22:21:49.965Z,56.80
2018-09-05T22:24:17.047Z,56.80
2018-09-05T22:26:44.125Z,56.80
2018-09-05T22:29:11.229Z,56.80
2018-09-05T22:31:38.321Z,56.70
2018-09-05T22:34:05.426Z,56.70
2018-09-05T22:36:32.501Z,56.80
2018-09-05T22:38:59.647Z,56.70
2018-09-05T22:41:26.722Z,56.70
2018-09-05T22:44:05.394Z,56.70
2018-09-05T22:46:44.121Z,56.70
2018-09-05T22:51:36.647Z,56.60
2018-09-05T22:54:25.176Z,56.70
2018-09-05T22:57:12.085Z,56.80
2018-09-05T22:59:52.737Z,57.10
2018-09-05T23:04:34.313Z,56.70
2018-09-05T23:07:14.490Z,56.80
2018-09-05T23:09:53.358Z,56.80
2018-09-05T23:12:32.293Z,56.80
2018-09-05T23:15:11.169Z,57.00
2018-09-05T23:19:53.799Z,56.70
2018-09-05T23:22:21.080Z,56.70
2018-09-05T23:24:48.149Z,56.60
2018-09-05T23:27:15.225Z,56.60
2018-09-05T23:29:42.323Z,56.50
2018-09-05T23:32:09.561Z,56.40
2018-09-05T23:34:36.636Z,56.40
2018-09-05T23:37:03.717Z,56.40
2018-09-05T23:39:30.822Z,56.40
2018-09-05T23:41:57.888Z,56.40
2018-09-05T23:44:24.965Z,56.40
2018-09-05T23:46:52.029Z,56.40
2018-09-05T23:49:19.125Z,56.40
2018-09-05T23:51:46.205Z,56.30
2018-09-05T23:54:13.286Z,56.30
2018-09-05T23:56:40.417Z,56.30
2018-09-05T23:59:07.541Z,56.50
